Belleville, New York
Current Conditions -  °F | °C
As of 1:56 PM on Wednesday 26 Nov 2014 (Local Time) from KART Reporting Station
Overcast Overcast  
Wind Chill: -4°   Ceiling: 10000
Heat Index:   Visibility: 10mi
Dew Point: -7°   Wind: 10mph
Humidity: 56%   Direction: 30°NNE
Pressure: 30.15"   Gusts: NA
Location:  43.78°N, 76.12°W
Report Text: KART 261856Z AUTO 03009KT 10SM OVC100 01/M07 A3015 RMK AO2 SLP215 T00061072
Loading
Personal Weather Stations






























Interactive Weather Map New forecast layout! Learn more

10-Day Weather Forecast

Advertisements
Track Severe Weather on mobile